Time;durP1;ratioP1;P1;durP2;ratioP2;P2;SDS_P1;SDS_P2;PMS_P1;PMS_P2;Temp;Humidity;BMP_temperature;BMP_pressure;BME280_temperature;BME280_humidity;BME280_pressure;Samples;Min_cycle;Max_cycle;Signal;HPM_P1;HPM_P2
2022/08/21 00:02:21;;;;;;;2.30;1.30;;;15.80;99.90;;;;;;5014268;28;20053;-69
2022/08/21 00:04:47;;;;;;;2.60;1.50;;;15.80;99.90;;;;;;5014027;28;20478;-69
2022/08/21 00:07:13;;;;;;;3.55;1.52;;;15.80;99.90;;;;;;5014236;28;20053;-69
2022/08/21 00:09:39;;;;;;;2.42;1.27;;;15.70;99.90;;;;;;5014972;28;20050;-69
2022/08/21 00:12:05;;;;;;;2.90;1.67;;;15.60;99.90;;;;;;5014095;28;20129;-69
2022/08/21 00:14:31;;;;;;;2.38;1.45;;;15.60;99.90;;;;;;5014081;28;20050;-69
2022/08/21 00:16:58;;;;;;;3.55;1.52;;;15.50;99.90;;;;;;5014094;28;20053;-68
2022/08/21 00:19:24;;;;;;;3.08;1.70;;;15.50;99.90;;;;;;5014304;28;20466;-69
2022/08/21 00:21:52;;;;;;;3.80;1.70;;;15.50;99.90;;;;;;5014432;28;20101;-69
2022/08/21 00:24:22;;;;;;;3.42;2.10;;;15.40;99.90;;;;;;5013213;28;20065;-69
2022/08/21 00:26:48;;;;;;;3.17;2.00;;;15.40;99.90;;;;;;5013909;28;20108;-69
2022/08/21 00:29:14;;;;;;;3.38;1.90;;;15.40;99.90;;;;;;5014154;28;20045;-69
2022/08/21 00:31:41;;;;;;;4.68;1.70;;;15.30;99.90;;;;;;5014889;28;20371;-69
2022/08/21 00:34:08;;;;;;;3.30;1.92;;;15.30;99.90;;;;;;5012744;28;20495;-69
2022/08/21 00:36:34;;;;;;;2.63;1.65;;;15.20;99.90;;;;;;5013764;28;20176;-69
2022/08/21 00:39:01;;;;;;;3.08;1.80;;;15.30;99.90;;;;;;5013685;28;20060;-69
2022/08/21 00:41:27;;;;;;;3.60;2.15;;;15.30;99.90;;;;;;5013744;28;20111;-69
2022/08/21 00:43:54;;;;;;;4.68;1.90;;;15.30;99.90;;;;;;4996003;28;20471;-70
2022/08/21 00:46:20;;;;;;;6.22;2.22;;;15.30;99.90;;;;;;5013861;28;20049;-69
2022/08/21 00:48:45;;;;;;;4.10;1.88;;;15.30;99.90;;;;;;5013636;28;20497;-69
2022/08/21 00:51:22;;;;;;;3.05;2.08;;;15.20;99.90;;;;;;5013460;28;20441;-68
2022/08/21 00:53:50;;;;;;;3.53;1.98;;;15.10;99.90;;;;;;5014268;28;20041;-68
2022/08/21 00:56:15;;;;;;;4.05;2.10;;;15.10;99.90;;;;;;5013539;28;20037;-68
2022/08/21 00:58:42;;;;;;;4.10;2.13;;;15.00;99.90;;;;;;5013126;28;20049;-69
2022/08/21 01:01:08;;;;;;;3.35;2.20;;;15.00;99.90;;;;;;5012441;28;20054;-69
2022/08/21 01:03:34;;;;;;;3.38;2.30;;;15.00;99.90;;;;;;5013383;28;20041;-69
2022/08/21 01:06:00;;;;;;;3.97;2.40;;;14.90;99.90;;;;;;5013456;28;20038;-69
2022/08/21 01:08:28;;;;;;;3.28;2.03;;;15.00;99.90;;;;;;5013375;28;20050;-68
2022/08/21 01:10:55;;;;;;;3.25;2.45;;;14.90;99.90;;;;;;5013462;28;20510;-69
2022/08/21 01:13:24;;;;;;;4.45;2.30;;;14.90;99.90;;;;;;5014155;28;20411;-68
2022/08/21 01:15:52;;;;;;;3.97;2.35;;;14.90;99.90;;;;;;5013591;28;20056;-68
2022/08/21 01:18:19;;;;;;;5.30;3.25;;;14.80;99.90;;;;;;5013301;28;20108;-68
2022/08/21 01:21:10;;;;;;;3.00;1.98;;;14.80;99.90;;;;;;5013009;28;20068;-68
2022/08/21 01:23:37;;;;;;;2.40;2.20;;;14.70;99.90;;;;;;5013200;28;20066;-69
2022/08/21 01:26:04;;;;;;;3.05;2.20;;;14.70;99.90;;;;;;5013755;28;20048;-69
2022/08/21 01:28:34;;;;;;;3.95;2.17;;;14.70;99.90;;;;;;5012928;28;20487;-69
2022/08/21 01:31:02;;;;;;;4.15;2.70;;;14.80;99.90;;;;;;5011981;28;20046;-68
2022/08/21 01:33:28;;;;;;;6.05;3.00;;;14.80;99.90;;;;;;5013360;28;20042;-69
2022/08/21 01:35:54;;;;;;;3.95;2.20;;;14.80;99.90;;;;;;5017604;28;20144;-69
2022/08/21 01:38:20;;;;;;;4.53;3.00;;;14.80;99.90;;;;;;5017050;28;20041;-69
2022/08/21 01:40:45;;;;;;;4.68;2.67;;;14.80;99.90;;;;;;5016960;28;20052;-68
2022/08/21 01:43:11;;;;;;;5.47;3.60;;;14.80;99.90;;;;;;5016886;28;20042;-68
2022/08/21 01:45:37;;;;;;;5.30;3.67;;;14.80;99.90;;;;;;5016923;28;20093;-69
2022/08/21 01:48:03;;;;;;;4.22;3.33;;;14.80;99.90;;;;;;5016857;28;20088;-68
2022/08/21 01:50:29;;;;;;;3.97;3.17;;;14.70;99.90;;;;;;5016810;28;20499;-69
2022/08/21 01:52:55;;;;;;;4.25;3.00;;;14.70;99.90;;;;;;5015625;28;20058;-69
2022/08/21 01:55:21;;;;;;;4.70;3.20;;;14.70;99.90;;;;;;5016704;28;20126;-69
2022/08/21 01:57:48;;;;;;;6.68;3.60;;;14.70;99.90;;;;;;5016620;28;20088;-69
2022/08/21 02:00:16;;;;;;;5.35;4.13;;;14.70;99.90;;;;;;5016589;28;20060;-69
2022/08/21 02:02:42;;;;;;;5.93;4.10;;;14.60;99.90;;;;;;5016155;28;20479;-69
2022/08/21 02:05:10;;;;;;;6.65;4.60;;;14.60;99.90;;;;;;5016387;28;20049;-68
2022/08/21 02:07:43;;;;;;;6.38;4.72;;;14.50;99.90;;;;;;5016510;28;20417;-68
2022/08/21 02:10:10;;;;;;;8.32;5.35;;;14.50;99.90;;;;;;5017137;28;20398;-69
2022/08/21 02:12:36;;;;;;;6.53;3.90;;;14.60;99.90;;;;;;5016400;28;20053;-69
2022/08/21 02:15:04;;;;;;;8.27;4.38;;;14.50;99.90;;;;;;5016260;28;20045;-69
2022/08/21 02:17:43;;;;;;;8.32;4.18;;;14.50;99.90;;;;;;5016237;28;20050;-68
2022/08/21 02:20:10;;;;;;;7.43;4.18;;;14.40;99.90;;;;;;5016117;28;20512;-68
2022/08/21 02:22:36;;;;;;;5.70;4.13;;;14.30;99.90;;;;;;5016824;28;20461;-69
2022/08/21 02:25:02;;;;;;;6.43;4.50;;;14.30;99.90;;;;;;5016048;28;20139;-69
2022/08/21 02:27:28;;;;;;;8.25;5.40;;;14.20;99.90;;;;;;5016082;28;20049;-69
2022/08/21 02:29:56;;;;;;;8.15;5.57;;;14.10;99.90;;;;;;5016037;28;20056;-68
2022/08/21 02:32:22;;;;;;;7.30;5.25;;;14.10;99.90;;;;;;5016034;28;20189;-68
2022/08/21 02:34:48;;;;;;;8.02;5.70;;;14.20;99.90;;;;;;5016198;28;20128;-68
2022/08/21 02:37:14;;;;;;;6.47;5.47;;;14.30;99.90;;;;;;5016063;28;20536;-68
2022/08/21 02:39:40;;;;;;;8.45;5.65;;;14.40;99.90;;;;;;5015838;28;20181;-68
2022/08/21 02:42:06;;;;;;;7.00;5.80;;;14.40;99.90;;;;;;5015748;28;20169;-68
2022/08/21 02:44:31;;;;;;;7.85;5.35;;;14.40;99.90;;;;;;5015752;28;20046;-69
2022/08/21 02:46:57;;;;;;;6.10;4.60;;;14.40;99.90;;;;;;5015027;28;20046;-69
2022/08/21 02:49:22;;;;;;;6.90;5.00;;;14.30;99.90;;;;;;5015622;28;20046;-69
2022/08/21 02:51:48;;;;;;;8.80;5.30;;;14.30;99.90;;;;;;5015548;28;20046;-69
2022/08/21 02:54:14;;;;;;;7.30;5.40;;;14.20;99.90;;;;;;5015450;28;20099;-68
2022/08/21 02:56:39;;;;;;;7.20;5.32;;;14.20;99.90;;;;;;5015490;28;20042;-69
2022/08/21 02:59:05;;;;;;;10.48;6.03;;;14.10;99.90;;;;;;5015508;28;20111;-68
2022/08/21 03:01:31;;;;;;;8.85;5.60;;;14.10;99.90;;;;;;5014428;28;20450;-69
2022/08/21 03:03:57;;;;;;;8.45;5.53;;;14.10;99.90;;;;;;5015591;28;20430;-68
2022/08/21 03:06:24;;;;;;;7.18;5.72;;;14.10;99.90;;;;;;5015095;28;20053;-68
2022/08/21 03:08:50;;;;;;;8.13;5.82;;;14.00;99.90;;;;;;5015341;28;20050;-68
2022/08/21 03:11:17;;;;;;;7.60;5.57;;;14.00;99.90;;;;;;5014961;28;20058;-68
2022/08/21 03:13:43;;;;;;;9.73;6.15;;;13.90;99.90;;;;;;5015254;28;20049;-68
2022/08/21 03:16:08;;;;;;;7.57;5.10;;;13.90;99.90;;;;;;5015945;28;20042;-69
2022/08/21 03:18:35;;;;;;;8.40;5.43;;;13.80;99.90;;;;;;5015147;28;20041;-68
2022/08/21 03:21:01;;;;;;;7.82;5.60;;;13.80;99.90;;;;;;5014997;28;20112;-68
2022/08/21 03:23:26;;;;;;;7.40;5.85;;;13.80;99.90;;;;;;5013740;28;20050;-69
2022/08/21 03:25:52;;;;;;;8.40;5.35;;;13.80;99.90;;;;;;5015043;28;20053;-68
2022/08/21 03:28:21;;;;;;;6.43;5.15;;;13.80;99.90;;;;;;5014897;28;20048;-68
2022/08/21 03:30:49;;;;;;;7.05;5.28;;;13.80;99.90;;;;;;5014977;28;20144;-68
2022/08/21 03:33:16;;;;;;;9.02;5.57;;;13.70;99.90;;;;;;5014791;28;20042;-68
2022/08/21 03:35:52;;;;;;;7.25;5.82;;;13.70;99.90;;;;;;5013760;28;20045;-68
2022/08/21 03:38:19;;;;;;;6.97;5.40;;;13.70;99.90;;;;;;5014849;28;20056;-68
2022/08/21 03:40:45;;;;;;;6.85;5.70;;;13.60;99.90;;;;;;5014644;28;20050;-69
2022/08/21 03:43:11;;;;;;;8.23;5.40;;;13.60;99.90;;;;;;5014858;28;20045;-68
2022/08/21 03:45:38;;;;;;;7.57;5.60;;;13.50;99.90;;;;;;5014584;28;20475;-68
2022/08/21 03:48:06;;;;;;;8.13;5.20;;;13.50;99.90;;;;;;5014543;28;20050;-69
2022/08/21 03:50:36;;;;;;;6.07;5.10;;;13.50;99.90;;;;;;5014554;28;20119;-68
2022/08/21 03:53:03;;;;;;;7.72;5.40;;;13.50;99.90;;;;;;5014781;28;20045;-68
2022/08/21 03:55:29;;;;;;;7.82;5.50;;;13.50;99.90;;;;;;5014471;28;20053;-68
2022/08/21 03:57:55;;;;;;;7.53;5.25;;;13.60;99.90;;;;;;5014227;28;20115;-69
2022/08/21 04:00:22;;;;;;;7.32;5.35;;;13.50;99.90;;;;;;5015134;28;20050;-68
2022/08/21 04:02:48;;;;;;;7.00;5.30;;;13.50;99.90;;;;;;5014302;28;20037;-68
2022/08/21 04:05:26;;;;;;;7.18;5.72;;;13.50;99.90;;;;;;5014577;28;20046;-69
2022/08/21 04:08:04;;;;;;;9.10;5.60;;;13.50;99.90;;;;;;5014253;28;20069;-68
2022/08/21 04:10:33;;;;;;;9.95;6.13;;;13.60;99.90;;;;;;5015003;28;20054;-68
2022/08/21 04:12:59;;;;;;;10.57;6.45;;;13.60;99.90;;;;;;5013092;28;20132;-68
2022/08/21 04:15:25;;;;;;;9.05;6.22;;;13.70;99.90;;;;;;5014284;28;20125;-68
2022/08/21 04:17:52;;;;;;;8.02;5.90;;;13.70;99.90;;;;;;5014000;28;20509;-68
2022/08/21 04:20:19;;;;;;;8.20;6.15;;;13.70;99.90;;;;;;5013836;28;20061;-68
2022/08/21 04:22:46;;;;;;;7.60;6.10;;;13.80;99.90;;;;;;5014603;28;20398;-68
2022/08/21 04:25:13;;;;;;;7.88;5.88;;;13.80;99.90;;;;;;5013388;28;20038;-68
2022/08/21 04:27:40;;;;;;;9.05;6.22;;;13.80;99.90;;;;;;5013031;28;20545;-69
2022/08/21 04:30:08;;;;;;;10.75;6.43;;;13.80;99.90;;;;;;5013776;28;20100;-68
2022/08/21 04:32:34;;;;;;;7.00;5.93;;;13.80;99.90;;;;;;5013866;28;20096;-68
2022/08/21 04:35:10;;;;;;;7.88;5.35;;;13.80;99.90;;;;;;5013465;28;20092;-69
2022/08/21 04:37:36;;;;;;;8.27;5.93;;;13.90;99.90;;;;;;5013826;28;20042;-68
2022/08/21 04:40:03;;;;;;;7.93;6.03;;;13.80;99.90;;;;;;5014753;28;20131;-68
2022/08/21 04:42:29;;;;;;;8.90;5.90;;;13.80;99.90;;;;;;5014107;28;20053;-69
2022/08/21 04:44:56;;;;;;;9.40;5.50;;;13.80;99.90;;;;;;5013448;28;20050;-68
2022/08/21 04:47:22;;;;;;;8.20;5.70;;;13.90;99.90;;;;;;5013667;28;20127;-69
2022/08/21 04:49:48;;;;;;;8.45;5.78;;;13.90;99.90;;;;;;5012347;28;20046;-69
2022/08/21 04:52:17;;;;;;;9.35;5.78;;;13.90;99.90;;;;;;5013487;28;20078;-68
2022/08/21 04:54:45;;;;;;;7.88;5.53;;;13.90;99.90;;;;;;5013692;28;20383;-68
2022/08/21 04:57:12;;;;;;;9.40;5.68;;;14.00;99.90;;;;;;5013509;28;20050;-68
2022/08/21 04:59:44;;;;;;;7.05;5.53;;;14.10;99.90;;;;;;5013463;28;20053;-68
2022/08/21 05:02:12;;;;;;;7.70;5.60;;;14.20;99.90;;;;;;5013364;28;20390;-68
2022/08/21 05:04:43;;;;;;;7.50;5.30;;;14.20;99.90;;;;;;5013438;28;20054;-68
2022/08/21 05:07:14;;;;;;;8.02;5.00;;;14.20;99.90;;;;;;5013198;28;20498;-68
2022/08/21 05:09:41;;;;;;;6.28;4.90;;;14.30;99.90;;;;;;5015351;28;20133;-68
2022/08/21 05:12:07;;;;;;;6.55;4.78;;;14.30;99.90;;;;;;5018147;28;20046;-68
2022/08/21 05:14:33;;;;;;;6.50;4.72;;;14.30;99.90;;;;;;5017388;28;20096;-68
2022/08/21 05:16:59;;;;;;;6.97;4.70;;;14.40;99.90;;;;;;5017657;28;20426;-68
2022/08/21 05:19:25;;;;;;;5.97;4.60;;;14.50;99.90;;;;;;5017332;28;20045;-68
2022/08/21 05:21:51;;;;;;;8.45;4.80;;;14.60;99.90;;;;;;5017131;28;20069;-68
2022/08/21 05:24:17;;;;;;;6.68;4.82;;;14.60;99.90;;;;;;5017152;28;20102;-68
2022/08/21 05:26:44;;;;;;;5.85;5.00;;;14.70;99.90;;;;;;5017190;28;20053;-68
2022/08/21 05:29:10;;;;;;;7.57;4.60;;;14.80;99.90;;;;;;5016861;28;20573;-68
2022/08/21 05:31:37;;;;;;;7.57;4.82;;;14.80;99.90;;;;;;5017659;28;20124;-68
2022/08/21 05:34:03;;;;;;;7.05;4.55;;;14.90;99.90;;;;;;5015863;28;20056;-68
2022/08/21 05:36:29;;;;;;;6.88;4.38;;;15.00;99.90;;;;;;5016967;28;20095;-68
2022/08/21 05:38:55;;;;;;;6.00;4.68;;;15.00;99.90;;;;;;5015816;28;20089;-68
2022/08/21 05:41:21;;;;;;;5.57;4.30;;;15.10;99.90;;;;;;5016979;28;20084;-68
2022/08/21 05:43:47;;;;;;;6.85;4.78;;;15.20;99.90;;;;;;5015612;28;20046;-68
2022/08/21 05:46:13;;;;;;;6.28;4.32;;;15.30;99.90;;;;;;5016918;28;20053;-68
2022/08/21 05:48:39;;;;;;;7.50;4.20;;;15.30;99.90;;;;;;5016884;28;20042;-68
2022/08/21 05:51:11;;;;;;;6.05;4.40;;;15.40;99.90;;;;;;5016170;28;20532;-68
2022/08/21 05:53:37;;;;;;;7.38;4.30;;;15.40;99.90;;;;;;5017390;28;20072;-68
2022/08/21 05:56:04;;;;;;;6.22;4.22;;;15.50;99.90;;;;;;5016862;28;20050;-68
2022/08/21 05:58:32;;;;;;;6.43;3.85;;;15.60;99.90;;;;;;5015916;28;20090;-68
2022/08/21 06:00:59;;;;;;;7.35;4.28;;;15.60;99.90;;;;;;5016542;28;20104;-68
2022/08/21 06:03:31;;;;;;;5.75;4.10;;;15.70;99.90;;;;;;5015522;28;20037;-68
2022/08/21 06:05:57;;;;;;;7.05;4.53;;;15.70;99.90;;;;;;5016498;28;20411;-68
2022/08/21 06:08:23;;;;;;;6.93;4.60;;;15.80;99.90;;;;;;5016432;28;20113;-68
2022/08/21 06:10:50;;;;;;;5.88;4.22;;;15.80;99.90;;;;;;5016380;28;20128;-68
2022/08/21 06:13:18;;;;;;;6.15;4.20;;;15.80;99.90;;;;;;5017110;28;20077;-68
2022/08/21 06:15:44;;;;;;;6.10;4.30;;;16.00;99.90;;;;;;5016775;28;20042;-68
2022/08/21 06:18:10;;;;;;;6.00;4.88;;;16.00;99.90;;;;;;5016257;28;20104;-68
2022/08/21 06:20:36;;;;;;;5.60;4.30;;;16.00;99.90;;;;;;5014866;28;20058;-68
2022/08/21 06:23:02;;;;;;;6.50;5.00;;;16.10;99.90;;;;;;5016853;28;20430;-68
2022/08/21 06:25:28;;;;;;;7.35;4.55;;;16.20;99.90;;;;;;5016127;28;20045;-68
2022/08/21 06:28:05;;;;;;;7.80;5.00;;;16.20;99.90;;;;;;5016569;28;20076;-67
2022/08/21 06:30:31;;;;;;;6.18;4.95;;;16.30;99.90;;;;;;5015768;28;20486;-68
2022/08/21 06:32:57;;;;;;;8.40;5.25;;;16.40;99.90;;;;;;5016534;28;20049;-67
2022/08/21 06:35:24;;;;;;;6.78;4.50;;;16.40;99.90;;;;;;5016332;28;20095;-68
2022/08/21 06:37:50;;;;;;;6.45;4.07;;;16.50;99.90;;;;;;5016079;28;20572;-68
2022/08/21 06:40:16;;;;;;;6.35;4.30;;;16.60;99.90;;;;;;5015871;28;20510;-68
2022/08/21 06:42:42;;;;;;;5.85;4.22;;;16.70;99.90;;;;;;5015761;28;20045;-68
2022/08/21 06:45:08;;;;;;;5.82;4.20;;;16.70;99.90;;;;;;5015759;28;20058;-68
2022/08/21 06:47:34;;;;;;;6.97;4.47;;;16.80;99.90;;;;;;5015677;28;20054;-68
2022/08/21 06:50:00;;;;;;;6.82;4.38;;;16.80;99.90;;;;;;5014660;28;20046;-68
2022/08/21 06:52:25;;;;;;;6.35;4.38;;;16.90;99.90;;;;;;5015647;28;20053;-68
2022/08/21 06:54:51;;;;;;;4.68;4.18;;;17.00;99.90;;;;;;5015545;28;20104;-64
2022/08/21 06:57:17;;;;;;;6.38;4.03;;;17.10;99.90;;;;;;5015906;28;20471;-64
2022/08/21 06:59:42;;;;;;;6.28;3.58;;;17.20;99.90;;;;;;5015761;28;20379;-64
2022/08/21 07:02:08;;;;;;;8.43;4.13;;;17.30;99.90;;;;;;5015658;28;20457;-64
2022/08/21 07:04:34;;;;;;;6.75;3.95;;;17.50;99.90;;;;;;5015390;28;20491;-64
2022/08/21 07:06:59;;;;;;;7.78;3.42;;;17.60;99.90;;;;;;5014154;28;20052;-65
2022/08/21 07:09:25;;;;;;;5.22;3.70;;;17.60;99.90;;;;;;5015767;28;20046;-65
2022/08/21 07:11:53;;;;;;;5.25;3.05;;;17.70;99.90;;;;;;5014954;28;20049;-64
2022/08/21 07:14:19;;;;;;;4.13;2.63;;;17.80;99.90;;;;;;5015245;28;20077;-64
2022/08/21 07:16:45;;;;;;;5.15;2.88;;;17.90;99.90;;;;;;5015602;28;20081;-64
2022/08/21 07:19:10;;;;;;;3.70;2.70;;;18.00;99.90;;;;;;5015114;28;20050;-64
2022/08/21 07:21:36;;;;;;;5.85;2.92;;;18.20;99.90;;;;;;5013710;28;20077;-64
2022/08/21 07:24:02;;;;;;;4.53;3.08;;;18.20;99.90;;;;;;5014658;28;20037;-65
2022/08/21 07:26:28;;;;;;;4.55;2.75;;;18.30;99.90;;;;;;5014113;28;20061;-64
2022/08/21 07:28:54;;;;;;;4.88;2.55;;;18.40;99.90;;;;;;5014775;28;20050;-65
2022/08/21 07:31:22;;;;;;;6.10;2.55;;;18.50;99.90;;;;;;5014614;28;20042;-65
2022/08/21 07:33:48;;;;;;;4.10;2.30;;;18.60;99.90;;;;;;5014876;28;20391;-64
2022/08/21 07:36:14;;;;;;;5.00;2.47;;;18.60;99.90;;;;;;5014757;28;20372;-66
2022/08/21 07:38:40;;;;;;;6.43;2.70;;;18.80;99.90;;;;;;5014607;28;20048;-66
2022/08/21 07:41:18;;;;;;;4.03;2.33;;;18.90;99.90;;;;;;5014640;28;20049;-65
2022/08/21 07:43:44;;;;;;;5.25;2.50;;;19.00;99.90;;;;;;4996723;28;20068;-66
2022/08/21 07:46:10;;;;;;;5.60;2.70;;;19.00;99.90;;;;;;5015250;28;20383;-65
2022/08/21 07:48:36;;;;;;;6.20;2.75;;;19.10;99.90;;;;;;5013681;28;20453;-64
2022/08/21 07:51:07;;;;;;;7.95;2.42;;;19.30;99.90;;;;;;5014361;28;20042;-65
2022/08/21 07:53:33;;;;;;;5.47;2.38;;;19.30;99.90;;;;;;5014925;28;20060;-64
2022/08/21 07:55:58;;;;;;;4.82;2.58;;;19.40;99.90;;;;;;5014406;28;20042;-65
2022/08/21 07:58:24;;;;;;;5.72;2.63;;;19.50;99.90;;;;;;5014239;28;20174;-65
2022/08/21 08:00:50;;;;;;;4.80;2.40;;;19.50;99.90;;;;;;5014898;28;20041;-65
2022/08/21 08:03:15;;;;;;;4.80;2.20;;;19.60;99.90;;;;;;5014449;28;20041;-65
2022/08/21 08:05:41;;;;;;;5.55;2.10;;;19.70;99.90;;;;;;5014284;28;20107;-66
2022/08/21 08:08:07;;;;;;;6.22;2.20;;;19.80;99.90;;;;;;5013900;28;20045;-66
2022/08/21 08:10:33;;;;;;;4.15;2.20;;;19.90;99.90;;;;;;5014842;28;20041;-65
2022/08/21 08:12:59;;;;;;;3.92;1.90;;;20.00;99.90;;;;;;5013911;28;20049;-65
2022/08/21 08:15:26;;;;;;;2.72;1.40;;;20.00;99.90;;;;;;5014614;28;20124;-65
2022/08/21 08:17:53;;;;;;;5.15;2.20;;;20.10;99.90;;;;;;5014008;28;20038;-65
2022/08/21 08:20:19;;;;;;;4.32;1.92;;;20.10;99.90;;;;;;5013914;28;20355;-65
2022/08/21 08:22:46;;;;;;;3.67;1.80;;;20.10;99.90;;;;;;5013126;28;20129;-66
2022/08/21 08:25:13;;;;;;;4.15;2.05;;;20.10;99.90;;;;;;5012676;28;20041;-65
2022/08/21 08:27:39;;;;;;;4.25;1.90;;;20.20;99.90;;;;;;5014061;28;20472;-66
2022/08/21 08:30:07;;;;;;;5.32;1.95;;;20.30;99.90;;;;;;5013846;28;20471;-66
2022/08/21 08:32:33;;;;;;;3.00;1.80;;;20.40;99.90;;;;;;5013810;28;20041;-66
2022/08/21 08:34:59;;;;;;;4.50;1.95;;;20.50;99.90;;;;;;5013920;28;20099;-66
2022/08/21 08:37:25;;;;;;;4.07;2.08;;;20.50;99.90;;;;;;5012566;28;20092;-66
2022/08/21 08:39:51;;;;;;;4.75;2.10;;;20.50;99.90;;;;;;5013728;28;20430;-65
2022/08/21 08:42:25;;;;;;;4.18;1.95;;;20.50;99.90;;;;;;5013600;28;20099;-65
2022/08/21 08:45:00;;;;;;;4.40;2.13;;;20.50;99.90;;;;;;5013173;28;20510;-64
2022/08/21 08:47:27;;;;;;;4.13;2.08;;;20.60;99.90;;;;;;5014385;28;20076;-67
2022/08/21 08:50:17;;;;;;;4.35;1.75;;;20.70;99.90;;;;;;5014251;28;20038;-64
2022/08/21 08:52:48;;;;;;;2.95;1.90;;;20.70;99.90;;;;;;5012872;28;20056;-64
2022/08/21 08:55:32;;;;;;;5.60;2.42;;;20.90;99.90;;;;;;5014049;28;20046;-65
2022/08/21 08:57:58;;;;;;;3.35;2.10;;;20.90;99.90;;;;;;5012775;28;20038;-65
2022/08/21 09:00:24;;;;;;;4.20;2.00;;;21.10;99.90;;;;;;5012529;28;20124;-66
2022/08/21 09:02:55;;;;;;;3.63;2.33;;;20.70;99.90;;;;;;5013403;28;20042;-65
2022/08/21 09:05:38;;;;;;;4.32;2.05;;;20.80;99.90;;;;;;5014072;28;20060;-65
2022/08/21 09:08:33;;;;;;;4.43;2.10;;;20.80;99.90;;;;;;5014023;28;20049;-65
2022/08/21 09:11:21;;;;;;;3.13;2.00;;;20.70;99.90;;;;;;4984927;28;20050;-66
2022/08/21 09:13:53;;;;;;;6.07;2.25;;;20.80;99.90;;;;;;5013256;28;20069;-66
2022/08/21 09:16:43;;;;;;;3.20;1.75;;;21.00;99.90;;;;;;5013372;28;20050;-65
2022/08/21 09:19:37;;;;;;;5.13;1.83;;;21.00;99.90;;;;;;5013354;28;20081;-65
2022/08/21 09:22:08;;;;;;;4.72;1.58;;;21.00;99.90;;;;;;5012425;28;20050;-66
2022/08/21 09:25:08;;;;;;;4.35;1.90;;;21.00;99.90;;;;;;5013484;28;20100;-66
2022/08/21 09:27:36;;;;;;;3.47;1.60;;;21.20;99.90;;;;;;5013210;28;20049;-66
2022/08/21 09:30:04;;;;;;;4.05;1.92;;;21.40;99.90;;;;;;5012833;28;20486;-65
2022/08/21 09:32:32;;;;;;;4.13;1.70;;;21.50;99.90;;;;;;5013627;28;20044;-68
2022/08/21 09:34:59;;;;;;;4.85;1.35;;;21.70;99.90;;;;;;5013223;28;20435;-65
2022/08/21 09:37:28;;;;;;;3.42;1.40;;;21.80;99.90;;;;;;5013439;28;20128;-66
2022/08/21 09:39:57;;;;;;;5.63;1.90;;;21.90;99.90;;;;;;5014168;28;20056;-66
2022/08/21 09:42:31;;;;;;;3.95;1.45;;;21.80;99.90;;;;;;5013566;28;20034;-66
2022/08/21 09:45:12;;;;;;;2.85;1.13;;;21.50;99.90;;;;;;5012848;28;20509;-65
2022/08/21 09:47:38;;;;;;;3.83;1.45;;;21.30;99.90;;;;;;5013836;28;20057;-66
2022/08/21 09:50:13;;;;;;;4.55;1.50;;;21.30;99.90;;;;;;5013257;28;20046;-65
2022/08/21 09:52:50;;;;;;;3.70;1.63;;;21.50;99.90;;;;;;5012758;28;20459;-65
2022/08/21 09:58:32;;;;;;;4.57;1.83;;;21.50;99.90;;;;;;5017319;28;20046;-65
2022/08/21 10:01:01;;;;;;;3.70;1.73;;;21.50;99.90;;;;;;5016678;28;20132;-65
2022/08/21 10:03:27;;;;;;;4.22;1.92;;;21.50;99.90;;;;;;5016581;28;20480;-69
2022/08/21 10:06:05;;;;;;;4.18;2.00;;;21.60;99.90;;;;;;5016634;28;20093;-66
2022/08/21 10:08:33;;;;;;;4.10;1.80;;;21.80;99.90;;;;;;5016848;28;20056;-66
2022/08/21 10:11:08;;;;;;;3.55;1.85;;;21.80;99.90;;;;;;5016513;28;20425;-66
2022/08/21 10:14:04;;;;;;;4.35;1.63;;;21.80;99.90;;;;;;5016587;28;20121;-65
2022/08/21 10:16:44;;;;;;;4.60;2.00;;;21.90;99.90;;;;;;4999226;28;20042;-66
2022/08/21 10:19:31;;;;;;;3.03;1.58;;;22.00;99.90;;;;;;5016800;28;20038;-66
2022/08/21 10:22:39;;;;;;;3.25;1.55;;;22.00;99.90;;;;;;5017195;28;20057;-65
2022/08/21 10:25:30;;;;;;;3.22;1.20;;;21.70;99.90;;;;;;4979452;28;20046;-66
2022/08/21 10:28:18;;;;;;;3.08;1.60;;;21.80;99.90;;;;;;5017008;28;20237;-66
2022/08/21 10:30:51;;;;;;;4.13;1.42;;;21.80;99.90;;;;;;5016192;28;20088;-65
2022/08/21 10:33:26;;;;;;;4.13;1.50;;;21.80;99.90;;;;;;5016187;28;20104;-65
2022/08/21 10:36:04;;;;;;;3.38;1.30;;;21.80;99.90;;;;;;5016781;28;20046;-66
2022/08/21 10:39:06;;;;;;;3.53;1.30;;;21.90;99.90;;;;;;5015079;28;20053;-67
2022/08/21 10:41:53;;;;;;;5.15;1.50;;;22.00;99.90;;;;;;5016024;28;20050;-65
2022/08/21 10:44:38;;;;;;;3.88;2.00;;;22.00;99.90;;;;;;5015819;28;20418;-65
2022/08/21 10:47:34;;;;;;;4.13;1.60;;;22.10;99.90;;;;;;5015586;28;20052;-65
2022/08/21 10:50:34;;;;;;;4.38;1.48;;;22.20;99.90;;;;;;5016313;28;20084;-65
2022/08/21 10:53:15;;;;;;;4.95;1.30;;;22.20;99.90;;;;;;5015348;28;20093;-65
2022/08/21 10:56:04;;;;;;;2.90;1.42;;;22.20;99.90;;;;;;5015725;28;20088;-65
2022/08/21 10:58:51;;;;;;;3.35;1.63;;;22.30;99.90;;;;;;5015700;28;20046;-66
2022/08/21 11:01:16;;;;;;;;;;;22.20;99.90;;;;;;5016068;28;20052;-66
2022/08/21 11:03:45;;;;;;;3.63;1.20;;;22.20;99.90;;;;;;5014856;28;19925;-64
2022/08/21 11:06:25;;;;;;;4.88;1.58;;;22.20;99.90;;;;;;5015394;28;20052;-65
2022/08/21 11:08:59;;;;;;;3.33;1.35;;;22.40;99.90;;;;;;5015058;28;20053;-64
2022/08/21 11:11:34;;;;;;;4.47;1.30;;;22.50;99.90;;;;;;5015928;28;20120;-65
2022/08/21 11:14:39;;;;;;;2.28;1.10;;;22.50;99.90;;;;;;5015153;28;20482;-65
2022/08/21 11:17:10;;;;;;;4.38;1.50;;;22.50;99.90;;;;;;5014902;28;20133;-64
2022/08/21 11:19:49;;;;;;;3.17;1.38;;;22.60;99.90;;;;;;4997655;28;20126;-65
2022/08/21 11:22:18;;;;;;;3.47;1.38;;;22.60;99.90;;;;;;5016028;28;20529;-65
2022/08/21 11:24:54;;;;;;;6.15;1.60;;;22.60;99.90;;;;;;5015004;28;20480;-65
2022/08/21 11:27:38;;;;;;;2.88;1.20;;;22.70;99.90;;;;;;5015970;28;20037;-65
2022/08/21 11:30:05;;;;;;;3.10;1.10;;;22.70;99.90;;;;;;5015004;28;20467;-65
2022/08/21 11:32:36;;;;;;;4.13;1.27;;;22.70;99.90;;;;;;5014963;28;20073;-65
2022/08/21 11:35:29;;;;;;;4.63;1.25;;;22.80;99.90;;;;;;5015209;28;20425;-65
2022/08/21 11:38:00;;;;;;;2.78;0.90;;;22.80;99.90;;;;;;5015435;28;20100;-65
2022/08/21 11:40:55;;;;;;;4.43;1.30;;;22.90;99.90;;;;;;5015372;28;20041;-65
2022/08/21 11:43:42;;;;;;;3.65;0.90;;;22.90;99.90;;;;;;5014920;28;20422;-65
2022/08/21 11:46:20;;;;;;;2.55;0.80;;;23.00;99.90;;;;;;5014063;28;20054;-65
2022/08/21 11:49:07;;;;;;;3.40;1.10;;;22.90;99.90;;;;;;5014929;28;20046;-65
2022/08/21 11:51:40;;;;;;;3.80;1.15;;;22.90;99.90;;;;;;5014641;28;20045;-67
2022/08/21 11:54:11;;;;;;;4.22;1.20;;;23.00;99.90;;;;;;5014543;28;20034;-65
2022/08/21 11:56:47;;;;;;;2.08;0.90;;;23.10;99.90;;;;;;5014679;28;20133;-65
2022/08/21 11:59:29;;;;;;;3.28;1.08;;;23.10;99.90;;;;;;5015021;28;20459;-65
2022/08/21 12:01:56;;;;;;;2.58;0.80;;;23.20;99.90;;;;;;5014467;28;20042;-65
2022/08/21 12:04:44;;;;;;;3.35;0.90;;;23.30;99.90;;;;;;5015040;28;20123;-65
2022/08/21 12:07:13;;;;;;;3.88;1.00;;;23.50;99.90;;;;;;5014359;28;20125;-65
2022/08/21 12:09:39;;;;;;;4.47;1.27;;;23.60;99.90;;;;;;5014241;28;20083;-65
2022/08/21 12:12:30;;;;;;;2.90;1.00;;;23.60;99.90;;;;;;5012775;28;20075;-65
2022/08/21 12:15:20;;;;;;;2.35;1.10;;;23.60;99.90;;;;;;5014998;28;20172;-65
2022/08/21 12:17:57;;;;;;;2.92;1.00;;;23.60;99.90;;;;;;5014096;28;20386;-65
2022/08/21 12:20:36;;;;;;;1.95;0.93;;;23.60;99.90;;;;;;5013990;28;20046;-65
2022/08/21 12:23:04;;;;;;;3.63;1.00;;;23.40;99.90;;;;;;5014445;28;20081;-66
2022/08/21 12:25:41;;;;;;;2.28;0.80;;;23.30;99.90;;;;;;5014448;28;20371;-65
2022/08/21 12:28:16;;;;;;;4.57;1.08;;;23.20;99.90;;;;;;5014010;28;20041;-65
2022/08/21 12:30:44;;;;;;;3.30;1.35;;;23.20;99.90;;;;;;5013915;28;20037;-65
2022/08/21 12:33:37;;;;;;;3.22;0.90;;;23.40;99.90;;;;;;5013899;28;20052;-65
2022/08/21 12:36:06;;;;;;;3.03;0.90;;;23.60;99.90;;;;;;5014362;28;20042;-65
2022/08/21 12:38:42;;;;;;;2.15;0.95;;;23.70;99.90;;;;;;5013362;28;20049;-65
2022/08/21 12:41:17;;;;;;;3.10;1.00;;;23.80;99.90;;;;;;5014095;28;20037;-64
2022/08/21 12:44:07;;;;;;;3.33;0.90;;;23.90;99.90;;;;;;5013790;28;20077;-65
2022/08/21 12:46:42;;;;;;;3.22;0.90;;;23.90;99.90;;;;;;5014281;28;20602;-65
2022/08/21 12:49:18;;;;;;;2.60;0.90;;;24.00;99.90;;;;;;5014574;28;20041;-65
2022/08/21 12:52:03;;;;;;;2.88;1.00;;;24.10;99.90;;;;;;5013981;28;20053;-65
2022/08/21 12:54:36;;;;;;;3.92;0.93;;;24.10;99.90;;;;;;5014015;28;20095;-65
2022/08/21 12:57:07;;;;;;;2.55;1.08;;;24.00;99.90;;;;;;5013860;28;20050;-65
2022/08/21 12:59:38;;;;;;;1.88;0.90;;;24.00;99.90;;;;;;5013403;28;20362;-64
2022/08/21 13:02:19;;;;;;;5.10;1.20;;;24.00;99.90;;;;;;5014224;28;20042;-65
2022/08/21 13:04:47;;;;;;;3.28;1.00;;;24.00;99.90;;;;;;5013747;28;20041;-65
2022/08/21 13:07:26;;;;;;;2.67;0.90;;;24.00;99.90;;;;;;5013478;28;20053;-66
2022/08/21 13:09:55;;;;;;;2.10;0.90;;;24.00;99.90;;;;;;5014264;28;20042;-66